Time;durP1;ratioP1;P1;durP2;ratioP2;P2;SDS_P1;SDS_P2;PMS_P1;PMS_P2;Temp;Humidity;BMP_temperature;BMP_pressure;BME280_temperature;BME280_humidity;BME280_pressure;Samples;Min_cycle;Max_cycle;Signal;HPM_P1;HPM_P2
2023/01/03 00:01:48;;;;;;;13.90;10.10;;;17.20;82.00;;;18.28;46.79;99288.78;5033535;28;20524;-79
2023/01/03 00:04:14;;;;;;;17.92;12.13;;;17.20;82.10;;;18.25;47.02;99283.94;5016648;28;20101;-79
2023/01/03 00:06:49;;;;;;;16.55;11.80;;;17.10;81.90;;;18.25;46.96;99285.88;5017517;28;20042;-79
2023/01/03 00:09:18;;;;;;;16.83;10.40;;;17.10;82.00;;;18.21;46.87;99286.47;4987812;28;20048;-79
2023/01/03 00:14:34;;;;;;;13.18;9.43;;;17.20;81.90;;;18.27;46.93;99300.91;5010132;28;20041;-78
2023/01/03 00:17:01;;;;;;;12.65;9.95;;;17.10;82.40;;;18.31;47.21;99295.59;5005762;28;20120;-79
2023/01/03 00:19:33;;;;;;;14.93;10.82;;;17.20;82.50;;;18.22;46.84;99284.56;5002328;28;20052;-79
2023/01/03 00:21:59;;;;;;;14.77;11.02;;;17.20;82.00;;;18.22;46.89;99282.63;5005630;28;20059;-79
2023/01/03 00:24:25;;;;;;;16.10;11.30;;;17.10;81.90;;;18.19;46.93;99282.41;5011930;28;20054;-79
2023/01/03 00:26:52;;;;;;;13.38;9.30;;;17.20;81.90;;;18.23;46.79;99278.75;5016569;28;20049;-79
2023/01/03 00:29:18;;;;;;;12.43;9.80;;;17.20;81.80;;;18.21;46.62;99282.94;5024661;28;20129;-79
2023/01/03 00:31:45;;;;;;;14.73;10.88;;;17.20;81.60;;;18.20;46.69;99279.38;5014108;28;20045;-79
2023/01/03 00:34:11;;;;;;;16.67;11.13;;;17.20;81.40;;;18.21;46.65;99288.41;5030363;28;20052;-79
2023/01/03 00:36:37;;;;;;;15.73;10.18;;;17.20;81.40;;;18.24;46.61;99287.78;5014892;28;20053;-79
2023/01/03 00:39:03;;;;;;;13.60;9.88;;;17.20;81.40;;;18.19;46.67;99294.25;5028632;28;20553;-79
2023/01/03 00:41:30;;;;;;;13.25;8.88;;;17.20;81.40;;;18.27;46.87;99298.16;5018900;28;20057;-79
2023/01/03 00:43:56;;;;;;;15.23;10.73;;;17.20;82.00;;;18.23;47.05;99310.88;5021019;28;20055;-79
2023/01/03 00:46:23;;;;;;;13.43;9.63;;;17.20;82.30;;;18.23;46.77;99313.63;5035765;28;20033;-79
2023/01/03 00:48:49;;;;;;;12.77;10.00;;;17.20;81.70;;;18.18;46.74;99325.53;4999614;28;20052;-79
2023/01/03 00:51:21;;;;;;;14.07;9.77;;;17.20;81.40;;;18.17;46.71;99320.38;5007971;28;20163;-79
2023/01/03 00:53:49;;;;;;;;;;;17.20;81.50;;;18.13;46.72;99314.69;5004773;28;20056;-79
2023/01/03 00:56:20;;;;;;;12.38;8.95;;;17.20;81.40;;;18.21;47.07;99313.94;5016095;28;19920;-79
2023/01/03 00:58:46;;;;;;;14.68;9.80;;;17.20;81.90;;;18.27;46.68;99322.88;4989971;28;20049;-79
2023/01/03 01:01:16;;;;;;;20.05;9.15;;;17.10;82.10;;;18.25;46.99;99319.63;5000967;28;20067;-79
2023/01/03 01:03:46;;;;;;;13.32;9.48;;;17.20;82.20;;;18.15;46.73;99317.13;5017269;28;20045;-79
2023/01/03 01:06:17;;;;;;;16.15;11.07;;;17.10;81.70;;;18.16;46.63;99322.28;5006440;28;20377;-79
2023/01/03 01:08:44;;;;;;;13.30;9.55;;;17.20;81.40;;;18.19;46.58;99334.59;5030240;28;20069;-79
2023/01/03 01:11:11;;;;;;;14.82;10.18;;;17.20;81.40;;;18.17;46.65;99329.44;5008048;28;20042;-79
2023/01/03 01:13:37;;;;;;;12.95;8.52;;;17.20;81.40;;;18.17;46.38;99337.66;5016363;28;20097;-79
2023/01/03 01:16:10;;;;;;;14.65;9.98;;;17.20;81.20;;;18.18;46.57;99346.69;5005934;28;20487;-79
2023/01/03 01:18:36;;;;;;;;;;;17.20;81.40;;;18.13;46.70;99335.84;5021343;28;20099;-79
2023/01/03 01:21:07;;;;;;;12.35;9.73;;;17.10;81.30;;;18.13;46.58;99344.09;5008385;28;20027;-79
2023/01/03 01:23:38;;;;;;;12.23;9.00;;;17.20;81.40;;;18.16;46.33;99333.28;5033780;28;20047;-79
2023/01/03 01:26:07;;;;;;;12.07;9.17;;;17.20;81.00;;;18.13;46.57;99344.88;5047544;28;20042;-79
2023/01/03 01:28:33;;;;;;;10.60;8.60;;;17.20;81.10;;;18.19;46.25;99340.06;5041720;28;20040;-79
2023/01/03 01:31:00;;;;;;;12.82;9.70;;;17.20;81.00;;;18.17;46.46;99345.09;5039466;28;20052;-79
2023/01/03 01:33:26;;;;;;;11.25;8.38;;;17.20;80.90;;;18.13;46.41;99347.63;5039378;28;20349;-79
2023/01/03 01:35:53;;;;;;;12.40;8.60;;;17.20;80.90;;;18.19;46.57;99351.06;5056165;28;20041;-78
2023/01/03 01:38:19;;;;;;;11.85;8.75;;;17.20;81.30;;;18.24;46.46;99353.69;5037900;28;20045;-79
2023/01/03 01:40:46;;;;;;;12.65;8.52;;;17.20;81.40;;;18.26;46.75;99348.69;5038027;28;20583;-79
2023/01/03 01:46:30;;;;;;;9.70;8.32;;;17.10;81.30;;;18.12;46.51;99342.47;5067726;28;20137;-79
2023/01/03 01:49:02;;;;;;;16.25;9.73;;;17.20;81.10;;;18.17;46.39;99347.84;5036328;28;20045;-79
2023/01/03 01:51:30;;;;;;;10.40;8.02;;;17.20;81.00;;;18.15;46.29;99348.13;5023592;28;20062;-79
2023/01/03 01:53:58;;;;;;;10.10;8.57;;;17.10;80.90;;;18.15;46.07;99348.13;5040329;28;20062;-79
2023/01/03 01:56:32;;;;;;;11.50;9.02;;;17.20;81.00;;;18.17;46.14;99353.34;5038921;28;20138;-79
2023/01/03 01:58:58;;;;;;;12.35;7.97;;;17.10;81.00;;;18.13;46.16;99346.81;5022878;28;20032;-79
2023/01/03 02:01:24;;;;;;;12.15;8.02;;;17.10;80.90;;;18.14;45.99;99348.44;5022108;28;20033;-79
2023/01/03 02:04:00;;;;;;;12.27;8.95;;;17.10;80.80;;;18.15;46.05;99350.06;5036850;28;20052;-79
2023/01/03 02:06:26;;;;;;;11.30;8.05;;;17.10;80.70;;;18.12;46.07;99350.69;5041315;28;20136;-79
2023/01/03 02:08:52;;;;;;;10.77;7.78;;;17.10;80.70;;;18.10;46.25;99350.19;5040305;28;20045;-79
2023/01/03 02:11:45;;;;;;;11.50;8.55;;;17.10;80.60;;;18.12;46.19;99346.03;5054425;28;20127;-78
2023/01/03 02:14:49;;;;;;;12.07;8.30;;;17.10;80.60;;;18.09;46.24;99356.78;5055562;28;20041;-79
2023/01/03 02:18:05;;;;;;;10.32;7.95;;;17.10;80.80;;;18.12;45.95;99348.75;5070151;28;20037;-79
2023/01/03 02:21:07;;;;;;;9.70;7.45;;;17.10;80.70;;;18.13;45.85;99353.13;5017743;28;20080;-79
2023/01/03 02:24:14;;;;;;;11.00;8.45;;;17.10;80.60;;;18.11;45.86;99347.13;5053751;28;20070;-79
2023/01/03 02:27:14;;;;;;;10.85;8.73;;;17.10;80.30;;;18.05;46.08;99347.56;5062495;28;20421;-79
2023/01/03 02:30:14;;;;;;;11.30;7.72;;;17.10;80.30;;;18.14;46.31;99351.19;5057337;28;20047;-79
2023/01/03 02:32:49;;;;;;;10.77;8.35;;;17.10;80.90;;;18.16;46.43;99359.94;5055620;28;20069;-79
2023/01/03 02:35:17;;;;;;;11.35;7.95;;;17.20;81.20;;;18.10;46.12;99363.91;5070322;28;20139;-79
2023/01/03 02:38:24;;;;;;;9.98;8.05;;;17.10;80.60;;;18.07;46.07;99367.28;5039284;28;20127;-79
2023/01/03 02:41:36;;;;;;;9.82;7.43;;;17.10;80.60;;;18.09;45.98;99362.28;5043059;28;20076;-79
2023/01/03 02:44:20;;;;;;;10.98;8.30;;;17.20;80.50;;;18.07;46.27;99370.03;5027077;28;20140;-79
2023/01/03 02:46:53;;;;;;;9.50;7.63;;;17.10;80.70;;;18.14;46.27;99375.88;5068612;28;20060;-79
2023/01/03 02:49:31;;;;;;;9.90;7.15;;;17.10;81.00;;;18.15;46.36;99372.84;5043966;28;20041;-79
2023/01/03 02:52:03;;;;;;;9.98;7.55;;;17.10;81.00;;;18.04;46.42;99370.63;5035777;28;20045;-79
2023/01/03 02:54:56;;;;;;;;;;;17.10;80.80;;;18.01;46.44;99372.06;5035182;28;20036;-78
2023/01/03 02:57:30;;;;;;;10.05;7.10;;;17.00;80.70;;;18.04;46.22;99379.69;5009601;28;19946;-79
2023/01/03 03:00:10;;;;;;;9.48;7.15;;;17.10;80.70;;;18.08;46.08;99377.13;5032848;28;20059;-79
2023/01/03 03:02:37;;;;;;;8.38;7.57;;;17.10;80.70;;;18.10;46.29;99369.41;5010823;28;20338;-79
2023/01/03 03:05:07;;;;;;;11.13;7.43;;;17.10;81.00;;;18.12;46.22;99375.41;5032898;28;20051;-79
2023/01/03 03:07:40;;;;;;;11.13;7.28;;;17.10;80.90;;;18.09;46.11;99387.81;5019944;28;20040;-79
2023/01/03 03:13:12;;;;;;;7.28;6.53;;;17.10;80.70;;;18.09;45.95;99387.81;5054748;28;20051;-79
2023/01/03 03:16:06;;;;;;;8.32;6.50;;;17.10;80.50;;;18.05;46.09;99402.47;5027956;28;20048;-79
2023/01/03 03:18:48;;;;;;;11.18;7.80;;;17.10;80.50;;;18.06;46.06;99406.81;5043327;28;20495;-79
2023/01/03 03:26:57;;;;;;;10.68;6.55;;;17.10;80.30;;;18.07;46.23;99423.00;5040801;28;20051;-79
2023/01/03 03:29:24;;;;;;;12.45;8.02;;;17.10;80.60;;;18.09;46.22;99429.00;5017881;28;20041;-79
2023/01/03 03:31:50;;;;;;;9.13;7.28;;;17.10;80.50;;;18.10;45.66;99436.09;5040723;28;20040;-79
2023/01/03 03:34:29;;;;;;;10.23;7.38;;;17.10;80.50;;;18.10;46.10;99435.31;5022704;28;20430;-79
2023/01/03 03:37:03;;;;;;;10.95;7.35;;;17.20;80.30;;;18.04;46.18;99433.78;5024327;28;20036;-79
2023/01/03 03:45:33;;;;;;;6.85;5.93;;;17.20;80.30;;;18.01;46.14;99440.69;5046570;28;20040;-79
2023/01/03 03:48:16;;;;;;;7.85;6.75;;;17.10;80.30;;;18.05;45.91;99449.13;5049659;28;20052;-79
2023/01/03 03:50:52;;;;;;;8.18;6.15;;;17.20;80.10;;;18.04;46.16;99439.25;5053302;28;20174;-79
2023/01/03 03:53:24;;;;;;;9.27;6.85;;;17.20;80.00;;;18.04;46.05;99447.50;5049010;28;20036;-79
2023/01/03 03:55:57;;;;;;;8.98;6.65;;;17.30;80.00;;;18.03;45.99;99452.19;5025879;28;20773;-79
2023/01/03 03:58:36;;;;;;;8.10;6.28;;;17.20;80.00;;;18.08;46.18;99459.50;5067209;28;20041;-79
2023/01/03 04:01:02;;;;;;;7.25;5.90;;;17.20;80.20;;;18.06;46.25;99456.25;5031140;28;20045;-79
2023/01/03 04:03:28;;;;;;;8.77;6.47;;;17.20;80.00;;;18.09;45.86;99452.88;5024209;28;20086;-79
2023/01/03 04:06:09;;;;;;;9.18;6.05;;;17.30;79.90;;;18.06;46.08;99448.81;5053550;28;20518;-79
2023/01/03 04:08:35;;;;;;;10.27;6.75;;;17.20;79.90;;;18.05;46.01;99452.69;5036831;28;20045;-79
2023/01/03 04:11:04;;;;;;;12.32;7.53;;;17.20;79.90;;;18.07;45.99;99453.19;5005063;28;20453;-79
2023/01/03 04:13:32;;;;;;;8.45;5.85;;;17.30;80.10;;;18.10;45.92;99460.00;5033635;28;20048;-79
2023/01/03 04:15:58;;;;;;;9.73;6.35;;;17.20;80.10;;;18.08;46.24;99465.00;5020561;28;20087;-79
2023/01/03 04:18:24;;;;;;;8.80;5.97;;;17.20;80.20;;;18.07;45.86;99464.19;5048115;28;20547;-79
2023/01/03 04:20:50;;;;;;;9.27;5.95;;;17.20;80.00;;;18.08;45.92;99473.22;5053513;28;20041;-79
2023/01/03 04:23:16;;;;;;;7.85;5.63;;;17.20;80.00;;;18.06;45.97;99476.25;5037981;28;20052;-79
2023/01/03 04:25:42;;;;;;;8.77;6.10;;;17.20;80.00;;;18.08;45.95;99478.72;5058545;28;20150;-79
2023/01/03 04:28:08;;;;;;;8.75;6.10;;;17.20;80.00;;;18.09;45.69;99488.56;5027617;28;20080;-79
2023/01/03 04:30:35;;;;;;;9.20;6.60;;;17.20;79.80;;;18.06;46.18;99490.00;5025564;28;20165;-79
2023/01/03 04:33:04;;;;;;;7.18;5.82;;;17.20;79.70;;;18.05;45.79;99495.81;5055817;28;20036;-79
2023/01/03 04:35:31;;;;;;;8.52;5.65;;;17.20;79.80;;;18.09;45.78;99499.53;5053097;28;20056;-79
2023/01/03 04:37:57;;;;;;;9.88;6.28;;;17.20;79.80;;;18.09;45.77;99489.41;5040310;28;20098;-79
2023/01/03 04:40:23;;;;;;;7.10;5.78;;;17.30;79.70;;;18.10;45.71;99495.69;5023553;28;20063;-79
2023/01/03 04:45:34;;;;;;;7.03;5.63;;;17.20;80.00;;;18.09;45.94;99497.63;5044924;28;20044;-79
2023/01/03 04:48:01;;;;;;;6.45;5.18;;;17.20;80.40;;;18.10;45.76;99501.19;5024410;28;20043;-79
2023/01/03 04:50:29;;;;;;;7.22;5.18;;;17.20;80.00;;;18.09;45.60;99507.78;5036873;28;20120;-79
2023/01/03 04:52:55;;;;;;;8.35;6.25;;;17.20;80.00;;;18.11;45.61;99505.56;5058971;28;20048;-79
2023/01/03 04:55:21;;;;;;;7.30;5.75;;;17.20;79.80;;;18.09;45.70;99513.28;5053795;28;20041;-79
2023/01/03 04:57:47;;;;;;;6.55;5.20;;;17.20;79.60;;;18.07;45.97;99515.53;5025631;28;20048;-79
2023/01/03 05:00:14;;;;;;;7.15;5.65;;;17.20;79.80;;;18.08;45.83;99512.47;5036156;28;20056;-79
2023/01/03 05:02:40;;;;;;;7.80;5.38;;;17.20;80.10;;;18.10;46.01;99507.50;5024588;28;20127;-79
2023/01/03 05:05:07;;;;;;;5.95;5.35;;;17.20;80.10;;;18.07;45.77;99507.31;5011732;28;20147;-79
2023/01/03 05:07:32;;;;;;;7.50;5.47;;;17.20;79.60;;;18.08;45.71;99509.72;5039178;28;20440;-78
2023/01/03 05:09:59;;;;;;;6.47;5.10;;;17.30;79.70;;;18.07;45.73;99510.03;5037171;28;20182;-79
2023/01/03 05:12:25;;;;;;;7.35;5.85;;;17.30;79.60;;;18.08;45.75;99508.91;5059425;28;20040;-79
2023/01/03 05:14:51;;;;;;;9.15;5.85;;;17.30;79.60;;;18.06;45.68;99520.19;5010545;28;20050;-79
2023/01/03 05:17:19;;;;;;;5.60;5.00;;;17.30;79.60;;;18.06;45.77;99522.13;5053916;28;20029;-79
2023/01/03 05:28:01;;;;;;;7.10;5.65;;;17.30;79.30;;;18.09;45.43;99524.25;5056123;28;20134;-79
2023/01/03 05:30:27;;;;;;;6.45;4.93;;;17.30;79.20;;;18.05;45.42;99531.50;5036917;28;20380;-79
2023/01/03 05:32:53;;;;;;;6.45;5.70;;;17.30;79.30;;;18.06;45.50;99530.38;5039357;28;20134;-79
2023/01/03 05:35:19;;;;;;;7.38;5.60;;;17.30;79.20;;;18.03;45.53;99533.72;5036152;28;20032;-79
2023/01/03 05:37:47;;;;;;;7.82;5.88;;;17.40;79.10;;;18.05;45.38;99537.78;5023167;28;20175;-79
2023/01/03 05:40:13;;;;;;;6.03;5.20;;;17.30;79.10;;;18.02;45.57;99538.41;5030085;28;20044;-79
2023/01/03 05:42:39;;;;;;;8.35;5.30;;;17.30;79.00;;;18.08;45.28;99552.84;5016374;28;20037;-79
2023/01/03 05:45:06;;;;;;;7.78;4.88;;;17.30;79.10;;;18.07;45.55;99560.28;5047494;28;20037;-79
2023/01/03 05:47:32;;;;;;;6.85;5.22;;;17.30;79.00;;;18.06;45.41;99569.59;5017054;28;20445;-79
2023/01/03 05:49:58;;;;;;;7.25;5.07;;;17.30;78.90;;;18.07;45.08;99578.69;5006376;28;20090;-79
2023/01/03 05:52:24;;;;;;;6.93;5.65;;;17.40;79.00;;;18.04;45.65;99576.50;5054542;28;20040;-79
2023/01/03 05:54:50;;;;;;;5.95;4.97;;;17.30;79.40;;;18.05;45.72;99573.47;5030484;28;20045;-79
2023/01/03 05:57:16;;;;;;;7.15;4.97;;;17.30;79.60;;;18.07;45.90;99581.41;5034238;28;20054;-79
2023/01/03 05:59:43;;;;;;;6.13;4.80;;;17.20;79.80;;;18.00;45.69;99579.88;5016843;28;20792;-79
2023/01/03 06:02:08;;;;;;;6.20;4.65;;;17.30;79.50;;;18.06;45.45;99585.28;5034429;28;20033;-79
2023/01/03 06:04:35;;;;;;;5.35;4.85;;;17.30;79.40;;;18.05;45.58;99587.22;5013499;28;20104;-79
2023/01/03 06:07:01;;;;;;;6.28;5.00;;;17.30;79.30;;;18.05;45.50;99589.16;5046951;28;20772;-79
2023/01/03 06:09:27;;;;;;;7.22;5.38;;;17.30;79.20;;;18.03;46.07;99588.63;5018622;28;20056;-79
2023/01/03 06:11:53;;;;;;;7.65;5.72;;;17.30;79.70;;;18.01;46.07;99586.19;5023178;28;20032;-79
2023/01/03 06:14:19;;;;;;;9.57;5.45;;;17.30;79.70;;;18.03;45.98;99596.88;5019091;28;20456;-79
2023/01/03 06:19:31;;;;;;;5.53;4.38;;;17.30;79.50;;;18.01;45.55;99605.38;5049051;28;20036;-79
2023/01/03 06:21:57;;;;;;;12.32;5.03;;;17.30;79.50;;;18.05;45.70;99605.63;5038112;28;20728;-79
2023/01/03 06:24:23;;;;;;;9.48;5.50;;;17.30;79.40;;;18.03;45.71;99618.81;5020153;28;20052;-78
2023/01/03 06:26:49;;;;;;;7.45;4.93;;;17.30;79.50;;;17.98;46.07;99623.28;5052692;28;20103;-79
2023/01/03 06:29:15;;;;;;;7.47;5.28;;;17.30;79.70;;;17.98;46.05;99612.31;5032186;28;20059;-79
2023/01/03 06:31:41;;;;;;;5.80;4.82;;;17.30;79.80;;;17.98;45.66;99628.78;5033371;28;20049;-79
2023/01/03 06:34:07;;;;;;;6.85;5.07;;;17.30;79.60;;;17.96;45.76;99632.94;5036800;28;20072;-79
2023/01/03 06:36:35;;;;;;;5.38;4.85;;;17.20;79.50;;;17.95;45.72;99631.31;5015541;28;20086;-78
2023/01/03 06:39:01;;;;;;;7.65;4.80;;;17.20;79.40;;;17.96;45.85;99633.78;5038554;28;20051;-79
2023/01/03 06:41:27;;;;;;;5.85;4.30;;;17.30;79.40;;;17.97;46.12;99646.38;5019573;28;20455;-79
2023/01/03 06:43:54;;;;;;;6.20;4.88;;;17.30;79.70;;;18.01;46.24;99652.06;5034217;28;20116;-79
2023/01/03 06:54:43;;;;;;;5.88;4.90;;;17.30;79.50;;;17.94;45.81;99657.97;5038206;28;20123;-79
2023/01/03 06:57:09;;;;;;;8.15;5.82;;;17.20;79.50;;;17.98;45.78;99661.72;5029682;28;20043;-79
2023/01/03 06:59:35;;;;;;;5.63;4.63;;;17.20;79.40;;;17.94;45.57;99665.38;5034348;28;20187;-79
2023/01/03 07:02:01;;;;;;;8.57;5.45;;;17.20;79.60;;;17.91;45.78;99669.53;5027752;28;20527;-79
2023/01/03 07:04:27;;;;;;;6.40;4.75;;;17.10;79.40;;;17.94;45.73;99671.69;5020072;28;20382;-79
2023/01/03 07:06:53;;;;;;;5.75;5.10;;;17.20;79.50;;;17.96;45.58;99674.94;5050213;28;20119;-79
2023/01/03 07:09:19;;;;;;;5.68;4.90;;;17.20;79.40;;;17.97;45.43;99673.81;5046378;28;20136;-79
2023/01/03 07:11:45;;;;;;;6.40;4.57;;;17.20;79.50;;;17.99;45.41;99685.31;5031942;28;20060;-79
2023/01/03 07:14:12;;;;;;;5.35;4.82;;;17.20;79.40;;;17.97;45.69;99678.50;5048760;28;20037;-79
2023/01/03 07:16:43;;;;;;;4.68;4.20;;;17.20;79.40;;;17.96;45.66;99685.09;5018256;28;20051;-79
2023/01/03 07:19:15;;;;;;;5.32;4.15;;;17.20;79.30;;;17.92;45.53;99687.63;5051462;28;20503;-79
2023/01/03 07:21:41;;;;;;;5.43;4.22;;;17.20;79.10;;;17.93;45.79;99693.94;5038392;28;20041;-79
2023/01/03 07:24:13;;;;;;;5.35;4.13;;;17.20;79.50;;;17.98;45.80;99697.41;5022918;28;20148;-79
2023/01/03 07:26:39;;;;;;;6.72;4.82;;;17.20;79.70;;;18.00;46.13;99695.16;5017550;28;20132;-79
2023/01/03 07:29:07;;;;;;;9.38;5.68;;;17.20;79.70;;;17.94;45.83;99701.88;4992462;28;20049;-79
2023/01/03 07:31:33;;;;;;;4.57;4.18;;;17.20;79.50;;;17.90;45.68;99698.09;5013324;28;20052;-79
2023/01/03 07:34:00;;;;;;;5.90;4.38;;;17.10;79.40;;;17.96;45.54;99705.16;4983037;28;20065;-79
2023/01/03 07:36:26;;;;;;;5.07;4.60;;;17.20;79.50;;;18.00;45.62;99711.63;5006106;28;20060;-79
2023/01/03 07:38:53;;;;;;;7.32;5.65;;;17.10;79.40;;;18.02;45.45;99713.28;5016106;28;20051;-79
2023/01/03 07:41:19;;;;;;;6.00;4.82;;;17.10;79.30;;;17.98;45.30;99716.63;5015105;28;20029;-79
2023/01/03 07:43:49;;;;;;;7.18;5.13;;;17.20;79.40;;;17.97;45.50;99714.19;5028797;28;20041;-79
2023/01/03 07:46:16;;;;;;;5.43;4.28;;;17.10;79.40;;;17.93;45.56;99711.22;4997212;28;20563;-79
2023/01/03 07:48:43;;;;;;;5.88;4.03;;;17.10;79.40;;;17.97;45.44;99722.41;5027902;28;20490;-79
2023/01/03 07:51:11;;;;;;;5.25;4.30;;;17.10;79.40;;;17.99;45.39;99710.03;5031870;28;20041;-79
2023/01/03 07:53:38;;;;;;;5.15;4.47;;;17.10;79.40;;;18.02;45.39;99721.53;5010229;28;20054;-79
2023/01/03 07:56:12;;;;;;;7.10;5.22;;;17.10;79.40;;;17.98;45.28;99732.28;4997787;28;20048;-79
2023/01/03 07:58:40;;;;;;;5.32;4.32;;;17.10;79.40;;;17.99;45.30;99731.19;4999728;28;20079;-79
2023/01/03 08:01:11;;;;;;;6.60;4.55;;;17.10;79.40;;;17.98;45.37;99741.31;4996026;28;20041;-79
2023/01/03 08:03:38;;;;;;;5.15;4.30;;;17.10;79.40;;;17.99;45.34;99742.97;4997748;28;20177;-79
2023/01/03 08:06:12;;;;;;;5.93;4.18;;;17.10;79.50;;;17.99;45.47;99745.72;4985456;28;20507;-79
2023/01/03 08:08:39;;;;;;;7.22;4.88;;;17.10;79.80;;;17.98;45.47;99746.81;5002819;28;20076;-79
2023/01/03 08:13:50;;;;;;;5.75;4.60;;;17.10;79.40;;;17.98;45.57;99749.56;4999839;28;20087;-79
2023/01/03 08:16:17;;;;;;;6.18;4.40;;;17.10;79.40;;;17.95;45.42;99750.16;5014992;28;20041;-79
2023/01/03 08:18:44;;;;;;;6.03;4.50;;;17.10;79.30;;;17.98;45.35;99746.81;5029643;28;20044;-79
2023/01/03 08:21:13;;;;;;;5.85;4.47;;;17.10;79.30;;;18.02;45.38;99746.22;5010723;28;20051;-79
2023/01/03 08:23:40;;;;;;;4.68;4.18;;;17.10;79.50;;;18.03;45.33;99742.34;5037942;28;20136;-79
2023/01/03 08:26:10;;;;;;;5.10;4.40;;;17.10;79.40;;;18.02;45.28;99746.22;5045014;28;20052;-79
2023/01/03 08:28:37;;;;;;;5.22;4.50;;;17.10;79.50;;;18.05;45.17;99737.38;5031713;28;20045;-79
2023/01/03 08:31:10;;;;;;;4.70;4.28;;;17.10;79.30;;;17.99;45.21;99748.47;5031295;28;20420;-79
2023/01/03 08:33:56;;;;;;;6.13;4.57;;;17.10;79.30;;;17.98;45.29;99749.56;5022101;28;20468;-79
2023/01/03 08:36:22;;;;;;;4.40;3.85;;;17.10;79.40;;;18.00;45.21;99752.81;5000411;28;20044;-79
2023/01/03 08:38:57;;;;;;;6.88;4.57;;;17.10;79.40;;;18.05;45.04;99745.63;5011033;28;20420;-79
2023/01/03 08:41:28;;;;;;;5.22;4.50;;;17.10;79.40;;;18.03;45.33;99748.66;5039898;28;20042;-79
2023/01/03 08:43:54;;;;;;;5.90;4.72;;;17.10;79.20;;;18.04;45.30;99749.47;5001920;28;20041;-79
2023/01/03 08:46:21;;;;;;;5.75;4.40;;;17.10;79.30;;;18.03;45.27;99764.31;5027352;28;20056;-79
2023/01/03 08:48:47;;;;;;;4.78;3.88;;;17.10;79.40;;;18.03;45.23;99767.88;5028537;28;20045;-79
2023/01/03 08:51:13;;;;;;;5.60;4.13;;;17.10;79.40;;;18.01;45.25;99767.34;5042461;28;20063;-79
2023/01/03 08:53:39;;;;;;;4.35;3.95;;;17.10;79.30;;;18.04;45.44;99765.94;5033145;28;20464;-79
2023/01/03 08:56:06;;;;;;;5.70;3.40;;;17.10;79.40;;;18.04;45.32;99761.28;5014684;28;20404;-79
2023/01/03 08:58:33;;;;;;;4.85;3.83;;;17.10;79.60;;;18.00;45.28;99763.00;5046843;28;20047;-79
2023/01/03 09:01:03;;;;;;;4.85;3.95;;;17.10;79.50;;;18.06;45.29;99760.97;5030577;28;20062;-79
2023/01/03 09:03:29;;;;;;;4.30;3.90;;;17.10;79.50;;;18.07;45.18;99768.13;5032497;28;20040;-79
2023/01/03 09:06:02;;;;;;;4.95;4.45;;;17.10;79.40;;;18.04;45.38;99771.44;5029800;28;20059;-79
2023/01/03 09:08:32;;;;;;;4.40;4.00;;;17.10;79.40;;;18.03;45.26;99769.81;5007445;28;20055;-79
2023/01/03 09:11:02;;;;;;;6.57;4.00;;;17.10;79.30;;;18.05;45.30;99773.88;5034271;28;20407;-79
2023/01/03 09:13:28;;;;;;;4.32;3.78;;;17.10;79.40;;;18.09;45.48;99777.69;5033391;28;20152;-79
2023/01/03 09:16:08;;;;;;;4.63;3.53;;;17.10;79.50;;;18.09;45.33;99776.84;5034529;28;20044;-79
2023/01/03 09:18:35;;;;;;;4.88;4.38;;;17.10;79.30;;;18.08;45.06;99778.78;5053283;28;20054;-79
2023/01/03 09:21:04;;;;;;;7.10;4.38;;;17.10;79.40;;;18.07;45.09;99776.34;5034677;28;20132;-79
2023/01/03 09:23:31;;;;;;;6.20;4.60;;;17.10;79.30;;;18.07;45.21;99779.09;5053985;28;20575;-79
2023/01/03 09:25:57;;;;;;;4.70;3.83;;;17.10;79.40;;;18.08;45.40;99775.22;5033729;28;20036;-79
2023/01/03 09:28:24;;;;;;;3.78;3.45;;;17.20;79.40;;;18.12;45.33;99773.53;5048882;28;20040;-79
2023/01/03 09:30:50;;;;;;;5.55;3.40;;;17.20;79.40;;;18.15;45.09;99778.41;5022390;28;20827;-79
2023/01/03 09:33:16;;;;;;;5.18;4.03;;;17.10;79.30;;;18.10;45.04;99779.28;5019336;28;20040;-79
2023/01/03 09:35:42;;;;;;;4.43;3.97;;;17.20;79.30;;;18.12;45.17;99779.00;5036376;28;20403;-79
2023/01/03 09:38:09;;;;;;;5.35;3.83;;;17.10;79.20;;;18.14;45.09;99783.09;5049291;28;20033;-79
2023/01/03 09:40:43;;;;;;;6.28;3.83;;;17.20;79.30;;;18.14;44.86;99779.50;5051665;28;20041;-79
2023/01/03 09:43:18;;;;;;;3.78;3.38;;;17.20;79.30;;;18.14;44.90;99785.00;5023776;28;20427;-79
2023/01/03 09:45:48;;;;;;;4.70;3.75;;;17.20;79.20;;;18.10;45.12;99787.53;5035661;28;20047;-79
2023/01/03 09:48:27;;;;;;;5.95;4.30;;;17.20;79.00;;;18.10;45.20;99787.53;5022261;28;20502;-79
2023/01/03 09:50:53;;;;;;;4.78;3.90;;;17.20;78.90;;;18.14;45.10;99787.75;5024117;28;20041;-79
2023/01/03 10:05:39;;;;;;;6.30;3.88;;;17.20;78.90;;;18.15;44.91;99778.41;5048295;28;20036;-79
2023/01/03 10:08:16;;;;;;;4.93;3.85;;;17.20;79.10;;;18.18;44.86;99772.31;5023899;28;20040;-79
2023/01/03 10:10:56;;;;;;;4.47;4.07;;;17.20;78.90;;;18.19;44.81;99777.50;5055222;28;20055;-79
2023/01/03 10:13:51;;;;;;;4.20;3.72;;;17.30;79.10;;;18.15;45.16;99772.91;5053359;28;20112;-79
2023/01/03 10:16:42;;;;;;;5.32;4.10;;;17.30;79.00;;;18.18;44.94;99783.28;5039108;28;20186;-79
2023/01/03 10:19:35;;;;;;;3.85;3.30;;;17.30;78.80;;;18.16;44.92;99769.03;5063980;28;20045;-79
2023/01/03 10:22:13;;;;;;;4.60;3.80;;;17.30;78.70;;;18.19;44.93;99779.41;5042359;28;20062;-79
2023/01/03 10:24:45;;;;;;;3.60;3.17;;;17.30;78.60;;;18.25;44.57;99771.94;5033006;28;20040;-79
2023/01/03 10:27:24;;;;;;;4.30;3.70;;;17.30;78.60;;;18.21;44.81;99772.50;5057750;28;20040;-79
2023/01/03 10:29:55;;;;;;;4.35;3.83;;;17.40;78.70;;;18.21;44.88;99767.00;5022860;28;20468;-79
2023/01/03 10:32:28;;;;;;;;;;;17.40;78.70;;;18.22;44.83;99765.91;5050855;28;20163;-79
2023/01/03 10:35:20;;;;;;;4.38;3.88;;;17.40;78.70;;;18.23;44.72;99763.97;5048199;28;19920;-79
2023/01/03 10:37:51;;;;;;;3.75;3.22;;;17.40;78.70;;;18.27;44.78;99762.28;5055389;28;20128;-79
2023/01/03 10:40:17;;;;;;;3.20;2.90;;;17.40;78.60;;;18.27;44.76;99766.94;5020026;28;20476;-79
2023/01/03 10:42:43;;;;;;;5.50;3.70;;;17.40;78.50;;;18.27;44.58;99766.94;5047830;28;20040;-79
2023/01/03 10:45:12;;;;;;;4.57;4.18;;;17.40;78.60;;;18.27;44.71;99770.50;5004890;28;20048;-79
2023/01/03 10:47:38;;;;;;;3.28;2.97;;;17.40;78.50;;;18.35;44.69;99772.56;5053875;28;20044;-79
2023/01/03 10:50:05;;;;;;;4.13;3.67;;;17.40;78.80;;;18.36;44.90;99768.69;5038124;28;20047;-79
2023/01/03 10:52:37;;;;;;;4.22;3.38;;;17.40;79.00;;;18.35;44.51;99772.56;5015685;28;20115;-79
2023/01/03 10:55:12;;;;;;;3.75;3.25;;;17.40;78.80;;;18.38;44.55;99771.16;5038578;28;20361;-79
2023/01/03 10:57:43;;;;;;;5.18;3.08;;;17.40;78.60;;;18.34;44.76;99770.94;5037474;28;20055;-79
2023/01/03 11:00:21;;;;;;;4.45;4.05;;;17.40;78.50;;;18.31;44.74;99760.53;5033209;28;20369;-79
2023/01/03 11:02:47;;;;;;;4.90;3.92;;;17.40;78.50;;;18.31;44.95;99768.78;5033815;28;20037;-79
2023/01/03 11:05:19;;;;;;;3.83;3.42;;;17.40;78.80;;;18.31;44.81;99765.22;5020159;28;20040;-79
2023/01/03 11:07:55;;;;;;;5.65;3.42;;;17.50;78.90;;;18.31;44.62;99762.47;5045146;28;20075;-79
2023/01/03 11:10:22;;;;;;;4.85;3.83;;;17.40;78.60;;;18.32;44.65;99745.69;5023135;28;20102;-79
2023/01/03 11:12:48;;;;;;;4.47;3.45;;;17.50;78.50;;;18.30;44.64;99747.13;5028762;28;20411;-79
2023/01/03 11:15:19;;;;;;;3.78;3.33;;;17.50;78.30;;;18.31;44.62;99746.81;5037128;28;20033;-79
2023/01/03 11:17:57;;;;;;;3.53;3.22;;;17.50;78.40;;;18.31;44.51;99749.56;5031030;28;20051;-79
2023/01/03 11:20:50;;;;;;;3.35;2.72;;;17.50;78.30;;;18.32;44.57;99753.94;5019523;28;20037;-79
2023/01/03 11:23:52;;;;;;;5.75;3.80;;;17.50;78.20;;;18.28;44.53;99752.91;5049212;28;20051;-79
2023/01/03 11:27:05;;;;;;;3.20;2.90;;;17.60;78.20;;;18.31;44.41;99746.81;5050761;28;20108;-79
2023/01/03 11:29:56;;;;;;;3.38;3.08;;;17.60;77.90;;;18.30;44.59;99756.16;5062754;28;20118;-79
2023/01/03 11:33:11;;;;;;;3.83;3.22;;;17.60;78.00;;;18.32;44.68;99759.44;5047414;28;20047;-79